Louisburg, NC

3:09 AM EST on March 06, 2015 (GMT -0500)
Huntsburg and Royal | Change Station
CLOSE
Current Station
Personal Weather Station
Location: Louisburg, NC
Elevation: 302 ft
Nearby Weather Stations
Active Advisory: Winter Weather Advisory

Elev 302 ft 36.04 °N, 78.35 °W | Updated 9 seconds ago

Mostly Cloudy
Mostly Cloudy
28.9 °F
Feels Like 21 °F
N
8.3
Wind Variable Wind from WNW
Gusts 9.8 mph

Today
High -- | Low -- °F
--% Chance of Precip.
Yesterday
High -- | Low -- °F
Precip. -- in
6:37 AM 6:12 PM
Full, 100% visible
Pressure 30.39 in
Visibility 10.0 miles
Clouds Overcast 7500 ft
Windchill 21 °F
Dew Point 20 °F
Humidity 69%
Rainfall in
Snow Depth Not available.
UV 0.0 out of 12
Pollen .90 out of 12
Air Quality Not available.
Flu Activity Not available.
METAR KLHZ 060755Z AUTO 36007KT 10SM OVC075 M02/M05 A3039 RMK AO2

More Conditions Fewer Conditions

Pressure 30.39 in
Visibility 10.0 miles
Clouds Overcast 7500 ft
Windchill 21 °F
Dew Point 20 °F
Humidity 69%
Rainfall in
Snow Depth Not available.
UV 0.0 out of 12
Pollen .90 out of 12
Air Quality Not available.
Flu Activity Not available.
METAR KLHZ 060755Z AUTO 36007KT 10SM OVC075 M02/M05 A3039 RMK AO2

More Conditions Fewer Conditions

10-Day Weather Forecast

Almanac

Astronomy

Mar. 06, 2015 Rise Set
Actual Time
Civil Twilight
Nautical Twilight
Astronomical Twilight
Moon
Length of Visible Light
Length of Day
Tomorrow will be .
, % of the Moon is Illuminated

Today's Extremes

State Highs State Lows

Community

WunderPhotos

Upload Photos

1,803,199 photos uploaded!

WunderBlogs® & News

Nearby

Air Quality

  Air Quality AQ Index Pollutant
Not available.

Snow Depth

Station Depth Elevation

Earthquake Activity

City Distance Mag. Time & Date
Minimum magnitude displayed is 2.5.

Coastal Water Temperatures

Place Temperature

Nearby Weather Stations

Winter Weather Advisory
Statement as of 10:29 PM EST on March 05, 2015

... Winter Weather Advisory remains in effect until noon EST
Friday...

* locations... along and north of Highway 64... including all of
The Triad and Triangle... Roxboro... Rocky Mount... and
Roanoke Rapids... as well as Wayne and Johnston counties.

* Hazard types... temperatures will drop below freezing between 11
PM and 1 am across north central North Carolina... causing any
moisture on roads and sidewalks to freeze. Readings are likely
to stay below freezing until late morning Friday.


* Impacts... hazardous travel conditions.

* Temperatures... in the upper 20s.

Precautionary/preparedness actions...

A Winter Weather Advisory has been issued because wet roads and
cold temperatures will result in areas of black ice on roads and
sidewalks. Motorists should exercise extreme caution tonight into
Friday morning... especially at intersections... onramps and
offramps... bridges... and overpasses... where accidents are most
likely.